Terminal Aerodrome Forecast
Issued by NWS

Home | Current Version | Previous Version | Text Only | Print | Product List | Glossary On
Versions: 1 2 3 4 5 6 7 8 9 10 11 12 13
109
FTUS42 KTAE 270520
TAFDHN
TAF
KDHN 270520Z 2706/2806 17010KT P6SM BKN015
     FM271500 21018G26KT P6SM VCTS BKN025CB OVC050
     FM280300 20010KT P6SM BKN009=

USA.gov is the U.S. government's official web portal to all federal, state and local government web resources and services.